Terminal Aerodrome Forecast
Issued by NWS Wilmington, OH

Current Version | Previous Version | Graphics & Text | Print | Product List | Glossary Off
Versions: 1 2 3 4 5 6 7 8 9 10 11 12 13 14 15 16 17 18 19 20 21

000
FTUS41 KILN 190800 AAA
TAFCVG
TAF AMD
KCVG 190857Z 1909/2012 02007KT P6SM BKN250
     FM191300 06010KT P6SM FEW250
     FM191700 06010G18KT P6SM FEW035
     FM200000 06005KT P6SM SKC=

USA.gov is the U.S. government's official web portal to all federal, state and local government web resources and services.